createdAt,value
2022-12-26T00:01:20.234Z,14.80
2022-12-26T00:03:46.648Z,14.94
2022-12-26T00:06:17.944Z,14.84
2022-12-26T00:08:44.728Z,14.78
2022-12-26T00:11:11.835Z,14.91
2022-12-26T00:13:41.698Z,15.02
2022-12-26T00:16:12.675Z,14.84
2022-12-26T00:18:39.272Z,14.81
2022-12-26T00:21:09.710Z,14.92
2022-12-26T00:23:36.746Z,14.49
2022-12-26T00:26:07.456Z,14.55
2022-12-26T00:28:33.971Z,14.99
2022-12-26T00:31:03.628Z,15.13
2022-12-26T00:33:29.919Z,14.98
2022-12-26T00:36:00.664Z,14.68
2022-12-26T00:38:26.996Z,14.77
2022-12-26T00:40:53.320Z,14.92
2022-12-26T00:43:19.652Z,14.68
2022-12-26T00:45:47.925Z,14.72
2022-12-26T00:48:14.326Z,14.90
2022-12-26T00:50:40.679Z,15.04
2022-12-26T00:53:07.794Z,14.74
2022-12-26T00:55:34.315Z,14.67
2022-12-26T00:58:01.433Z,14.71
2022-12-26T01:00:28.692Z,14.39
2022-12-26T01:02:55.327Z,14.59
2022-12-26T01:05:22.429Z,14.98
2022-12-26T01:08:21.086Z,14.84
2022-12-26T01:10:35.153Z,14.74
2022-12-26T01:13:02.143Z,14.53
2022-12-26T01:15:28.602Z,14.46
2022-12-26T01:17:54.920Z,14.38
2022-12-26T01:20:21.974Z,14.48
2022-12-26T01:22:48.334Z,14.41
2022-12-26T01:25:14.617Z,14.54
2022-12-26T01:27:40.968Z,14.31
2022-12-26T01:30:07.742Z,14.75
2022-12-26T01:32:34.057Z,14.80
2022-12-26T01:35:01.347Z,14.60
2022-12-26T01:37:28.694Z,13.98
2022-12-26T01:39:56.285Z,14.16
2022-12-26T01:42:24.080Z,13.50
2022-12-26T01:44:59.527Z,14.44
2022-12-26T01:47:34.398Z,14.27
2022-12-26T01:50:00.844Z,14.18
2022-12-26T01:52:35.338Z,14.88
2022-12-26T01:55:03.688Z,14.28
2022-12-26T01:57:33.346Z,14.59
2022-12-26T02:00:01.526Z,14.58
2022-12-26T02:02:29.578Z,14.74
2022-12-26T02:05:16.164Z,14.53
2022-12-26T02:07:45.044Z,14.87
2022-12-26T02:10:14.283Z,14.62
2022-12-26T02:12:41.135Z,14.75
2022-12-26T02:15:08.974Z,14.91
2022-12-26T02:17:36.099Z,14.95
2022-12-26T02:20:05.426Z,14.67
2022-12-26T02:22:47.107Z,14.21
2022-12-26T02:25:16.394Z,14.17
2022-12-26T02:28:09.625Z,14.56
2022-12-26T02:30:39.762Z,14.66
2022-12-26T02:33:14.693Z,14.16
2022-12-26T02:35:59.901Z,14.50
2022-12-26T02:38:26.161Z,13.39
2022-12-26T02:40:56.613Z,14.12
2022-12-26T02:43:29.265Z,14.50
2022-12-26T02:46:21.847Z,14.05
2022-12-26T02:49:00.344Z,14.62
2022-12-26T02:51:55.152Z,14.56
2022-12-26T02:54:53.593Z,14.34
2022-12-26T02:57:40.414Z,14.37
2022-12-26T03:00:29.917Z,14.36
2022-12-26T03:03:20.908Z,14.33
2022-12-26T03:06:12.672Z,14.40
2022-12-26T03:09:09.856Z,14.62
2022-12-26T03:11:59.606Z,14.13
2022-12-26T03:14:35.989Z,14.13
2022-12-26T03:17:20.130Z,13.40
2022-12-26T03:19:59.593Z,14.25
2022-12-26T03:22:31.370Z,13.86
2022-12-26T03:25:18.338Z,14.11
2022-12-26T03:27:44.770Z,14.37
2022-12-26T03:30:29.625Z,14.55
2022-12-26T03:32:57.217Z,14.60
2022-12-26T03:35:24.027Z,15.06
2022-12-26T03:37:56.144Z,14.49
2022-12-26T03:40:44.739Z,14.41
2022-12-26T03:43:35.845Z,14.52
2022-12-26T03:46:20.926Z,14.87
2022-12-26T03:49:14.313Z,14.75
2022-12-26T03:51:59.048Z,14.55
2022-12-26T03:54:50.677Z,14.56
2022-12-26T03:57:37.258Z,14.97
2022-12-26T04:00:29.673Z,14.38
2022-12-26T04:03:17.884Z,14.33
2022-12-26T04:06:04.077Z,14.62
2022-12-26T04:08:53.043Z,15.06
2022-12-26T04:11:39.371Z,14.92
2022-12-26T04:14:24.185Z,14.88
2022-12-26T04:17:12.129Z,14.92
2022-12-26T04:19:44.423Z,15.03
2022-12-26T04:22:46.856Z,15.11
2022-12-26T04:25:50.379Z,15.23
2022-12-26T04:28:37.283Z,15.21
2022-12-26T04:31:25.838Z,14.97
2022-12-26T04:34:12.604Z,14.99
2022-12-26T04:37:14.702Z,15.42
2022-12-26T04:40:02.728Z,15.11
2022-12-26T04:42:48.900Z,14.96
2022-12-26T04:45:15.626Z,15.13
2022-12-26T04:48:01.883Z,15.16
2022-12-26T04:50:28.277Z,15.22
2022-12-26T04:53:01.178Z,15.29
2022-12-26T04:55:29.015Z,15.13
2022-12-26T04:57:55.500Z,14.85
2022-12-26T05:00:24.048Z,15.09
2022-12-26T05:03:14.577Z,15.03
2022-12-26T05:06:14.916Z,14.94
2022-12-26T05:09:00.686Z,15.02
2022-12-26T05:11:27.489Z,14.70
2022-12-26T05:13:54.454Z,14.82
2022-12-26T05:16:39.559Z,14.81
2022-12-26T05:19:24.877Z,14.91
2022-12-26T05:22:10.049Z,15.22
2022-12-26T05:24:57.581Z,14.93
2022-12-26T05:27:42.972Z,14.95
2022-12-26T05:30:09.807Z,15.31
2022-12-26T05:32:54.931Z,14.90
2022-12-26T05:35:21.246Z,15.08
2022-12-26T05:37:47.580Z,15.38
2022-12-26T05:40:13.963Z,15.23
2022-12-26T05:42:40.331Z,15.00
2022-12-26T05:45:06.910Z,15.26
2022-12-26T05:47:33.315Z,15.04
2022-12-26T05:49:59.929Z,14.48
2022-12-26T05:52:26.251Z,14.79
2022-12-26T05:54:52.595Z,14.90
2022-12-26T05:57:19.001Z,14.87
2022-12-26T05:59:45.339Z,14.96
2022-12-26T06:02:11.835Z,14.93
2022-12-26T06:04:38.352Z,15.07
2022-12-26T06:07:04.712Z,15.03
2022-12-26T06:09:31.238Z,14.92
2022-12-26T06:11:57.533Z,15.41
2022-12-26T06:14:24.080Z,14.90
2022-12-26T06:16:50.450Z,15.40
2022-12-26T06:19:17.035Z,15.08
2022-12-26T06:21:43.385Z,15.22
2022-12-26T06:24:09.685Z,14.83
2022-12-26T06:26:36.155Z,15.60
2022-12-26T06:29:02.469Z,14.85
2022-12-26T06:31:28.834Z,15.18
2022-12-26T06:33:56.369Z,15.31
2022-12-26T06:36:23.775Z,14.48
2022-12-26T06:38:50.133Z,14.62
2022-12-26T06:41:17.663Z,14.79
2022-12-26T06:43:44.143Z,14.44
2022-12-26T06:46:12.567Z,14.77
2022-12-26T06:48:41.905Z,14.98
2022-12-26T06:51:10.963Z,14.39
2022-12-26T06:53:37.332Z,15.15
2022-12-26T06:56:08.264Z,14.96
2022-12-26T06:58:34.586Z,14.90
2022-12-26T07:01:05.004Z,14.62
2022-12-26T07:03:31.366Z,14.00
2022-12-26T07:06:01.608Z,14.21
2022-12-26T07:08:27.911Z,15.00
2022-12-26T07:10:54.195Z,13.93
2022-12-26T07:13:20.497Z,14.20
2022-12-26T07:15:46.804Z,14.42
2022-12-26T07:18:13.113Z,14.75
2022-12-26T07:20:39.479Z,14.50
2022-12-26T07:23:05.822Z,14.69
2022-12-26T07:25:32.263Z,14.70
2022-12-26T07:28:00.440Z,14.82
2022-12-26T07:30:26.788Z,14.72
2022-12-26T07:32:53.080Z,14.67
2022-12-26T07:35:19.618Z,14.33
2022-12-26T07:37:45.944Z,14.84
2022-12-26T07:40:12.625Z,14.16
2022-12-26T07:42:38.956Z,14.42
2022-12-26T07:45:05.507Z,14.82
2022-12-26T07:47:31.800Z,14.80
2022-12-26T07:49:58.125Z,14.80
2022-12-26T07:52:24.561Z,15.32
2022-12-26T07:54:50.917Z,14.95
2022-12-26T07:57:46.847Z,15.42
2022-12-26T08:00:04.871Z,14.56
2022-12-26T08:02:31.418Z,14.61
2022-12-26T08:04:57.855Z,15.03
2022-12-26T08:07:24.206Z,15.18
2022-12-26T08:09:50.597Z,14.48
2022-12-26T08:12:17.329Z,14.50
2022-12-26T08:14:43.631Z,15.15
2022-12-26T08:17:10.089Z,15.25
2022-12-26T08:19:36.473Z,14.54
2022-12-26T08:22:02.789Z,15.52
2022-12-26T08:24:29.221Z,15.38
2022-12-26T08:26:55.510Z,14.63
2022-12-26T08:29:21.864Z,14.93
2022-12-26T08:31:48.166Z,14.51
2022-12-26T08:34:14.539Z,15.26
2022-12-26T08:36:40.870Z,15.02
2022-12-26T08:39:07.782Z,15.15
2022-12-26T08:41:34.088Z,13.88
2022-12-26T08:46:46.756Z,14.83
2022-12-26T08:49:13.243Z,15.20
2022-12-26T08:51:39.613Z,14.89
2022-12-26T08:54:06.494Z,15.22
2022-12-26T08:56:32.937Z,15.02
2022-12-26T08:58:59.435Z,15.15
2022-12-26T09:01:27.229Z,15.42
2022-12-26T09:03:54.712Z,15.60
2022-12-26T09:06:21.515Z,15.44
2022-12-26T09:08:48.086Z,15.59
2022-12-26T09:11:15.696Z,15.40
2022-12-26T09:13:42.779Z,15.40
2022-12-26T09:16:13.374Z,15.43
2022-12-26T09:18:40.087Z,15.21
2022-12-26T09:21:08.324Z,15.46
2022-12-26T09:23:35.566Z,15.49
2022-12-26T09:26:05.271Z,15.64
2022-12-26T09:28:31.553Z,15.74
2022-12-26T09:31:05.509Z,15.26
2022-12-26T09:33:33.407Z,15.75
2022-12-26T09:36:04.500Z,15.76
2022-12-26T09:38:32.614Z,15.37
2022-12-26T09:41:02.015Z,14.72
2022-12-26T09:43:50.189Z,15.58
2022-12-26T09:46:21.679Z,14.43
2022-12-26T09:49:10.923Z,15.71
2022-12-26T09:51:39.879Z,15.43
2022-12-26T09:54:08.304Z,14.72
2022-12-26T09:57:01.901Z,14.50
2022-12-26T09:59:26.100Z,14.80
2022-12-26T10:01:53.441Z,14.99
2022-12-26T10:04:29.992Z,14.96
2022-12-26T10:07:05.826Z,15.08
2022-12-26T10:09:44.594Z,14.75
2022-12-26T10:12:29.803Z,14.87
2022-12-26T10:14:59.182Z,14.98
2022-12-26T10:17:36.742Z,15.32
2022-12-26T10:20:06.947Z,15.36
2022-12-26T10:22:40.081Z,15.46
2022-12-26T10:25:14.915Z,14.51
2022-12-26T10:27:43.874Z,15.11
2022-12-26T10:30:15.433Z,15.15
2022-12-26T10:32:43.901Z,15.28
2022-12-26T10:35:20.435Z,14.81
2022-12-26T10:37:48.212Z,15.64
2022-12-26T10:40:23.180Z,15.57
2022-12-26T10:42:57.186Z,15.38
2022-12-26T10:45:43.380Z,15.51
2022-12-26T10:48:13.100Z,15.46
2022-12-26T10:50:40.275Z,15.01
2022-12-26T10:53:07.608Z,15.62
2022-12-26T10:55:35.443Z,15.57
2022-12-26T10:58:09.321Z,15.08
2022-12-26T11:00:35.721Z,14.90
2022-12-26T11:03:06.976Z,15.61
2022-12-26T11:08:27.643Z,15.31
2022-12-26T11:11:03.360Z,15.75
2022-12-26T11:13:32.022Z,15.63
2022-12-26T11:15:58.405Z,16.11
2022-12-26T11:18:33.658Z,15.83
2022-12-26T11:21:17.978Z,15.03
2022-12-26T11:23:45.082Z,15.63
2022-12-26T11:26:20.352Z,14.97
2022-12-26T11:28:46.676Z,14.80
2022-12-26T11:31:26.639Z,15.32
2022-12-26T11:33:53.160Z,15.16
2022-12-26T11:36:22.307Z,15.31
2022-12-26T11:38:56.553Z,15.58
2022-12-26T11:41:32.016Z,15.59
2022-12-26T11:44:01.653Z,15.14
2022-12-26T11:46:42.132Z,15.57
2022-12-26T11:49:24.893Z,15.28
2022-12-26T11:51:55.623Z,15.29
2022-12-26T11:54:29.889Z,15.93
2022-12-26T11:57:00.823Z,15.44
2022-12-26T11:59:27.653Z,15.32
2022-12-26T12:02:12.921Z,15.29
2022-12-26T12:04:39.314Z,15.71
2022-12-26T12:07:13.583Z,15.80
2022-12-26T12:09:39.857Z,16.25
2022-12-26T12:12:20.186Z,16.17
2022-12-26T12:14:55.147Z,15.04
2022-12-26T12:17:21.835Z,15.55
2022-12-26T12:19:54.285Z,15.11
2022-12-26T12:22:34.612Z,15.36
2022-12-26T12:25:03.679Z,15.04
2022-12-26T12:27:32.940Z,14.75
2022-12-26T12:30:16.933Z,15.45
2022-12-26T12:32:56.729Z,15.55
2022-12-26T12:35:26.784Z,15.79
2022-12-26T12:38:11.860Z,15.71
2022-12-26T12:40:38.195Z,14.81
2022-12-26T12:43:22.798Z,14.24
2022-12-26T12:45:58.912Z,14.61
2022-12-26T12:48:37.142Z,14.85
2022-12-26T12:51:03.443Z,15.26
2022-12-26T12:53:52.259Z,15.05
2022-12-26T12:56:37.015Z,15.23
2022-12-26T12:59:06.459Z,15.15
2022-12-26T13:01:45.122Z,15.14
2022-12-26T13:04:27.313Z,15.07
2022-12-26T13:06:56.666Z,15.69
2022-12-26T13:09:26.125Z,15.64
2022-12-26T13:11:52.414Z,15.57
2022-12-26T13:14:37.594Z,14.93
2022-12-26T13:17:13.130Z,15.32
2022-12-26T13:19:52.674Z,15.56
2022-12-26T13:22:50.033Z,15.22
2022-12-26T13:25:18.272Z,14.79
2022-12-26T13:27:46.850Z,14.41
2022-12-26T13:30:15.650Z,14.76
2022-12-26T13:32:46.787Z,14.13
2022-12-26T13:35:31.928Z,13.88
2022-12-26T13:38:04.183Z,14.17
2022-12-26T13:40:31.577Z,14.11
2022-12-26T13:43:25.916Z,14.31
2022-12-26T13:45:54.868Z,14.96
2022-12-26T13:48:21.300Z,15.22
2022-12-26T13:50:56.117Z,13.16
2022-12-26T13:53:26.064Z,14.43
2022-12-26T13:55:54.291Z,14.15
2022-12-26T13:58:26.670Z,12.75
2022-12-26T14:00:56.264Z,13.80
2022-12-26T14:03:45.962Z,13.12
2022-12-26T14:06:41.983Z,13.34
2022-12-26T14:09:28.555Z,12.68
2022-12-26T14:12:13.589Z,12.15
2022-12-26T14:14:54.619Z,12.85
2022-12-26T14:17:33.336Z,13.80
2022-12-26T14:20:14.478Z,13.63
2022-12-26T14:22:59.692Z,13.56
2022-12-26T14:25:29.857Z,14.21
2022-12-26T14:28:10.751Z,13.37
2022-12-26T14:30:50.736Z,13.14
2022-12-26T14:33:25.709Z,13.34
2022-12-26T14:35:51.981Z,13.25
2022-12-26T14:38:37.066Z,14.55
2022-12-26T14:41:06.301Z,13.38
2022-12-26T14:43:34.852Z,12.96
2022-12-26T14:46:02.250Z,11.98
2022-12-26T14:48:28.612Z,11.40
2022-12-26T14:51:15.341Z,11.03
2022-12-26T14:53:43.163Z,11.36
2022-12-26T14:56:15.404Z,10.84
2022-12-26T14:58:41.901Z,11.40
2022-12-26T15:01:20.650Z,11.05
2022-12-26T15:03:53.359Z,11.70
2022-12-26T15:06:19.941Z,10.70
2022-12-26T15:08:49.696Z,10.63
2022-12-26T15:11:34.876Z,10.71
2022-12-26T15:14:26.385Z,11.42
2022-12-26T15:16:59.655Z,11.27
2022-12-26T15:19:45.264Z,10.83
2022-12-26T15:22:39.941Z,11.26
2022-12-26T15:25:25.474Z,11.51
2022-12-26T15:27:58.024Z,10.32
2022-12-26T15:30:24.309Z,10.99
2022-12-26T15:33:01.395Z,11.75
2022-12-26T15:35:30.407Z,10.84
2022-12-26T15:38:15.632Z,11.23
2022-12-26T15:40:51.425Z,11.67
2022-12-26T15:43:36.653Z,11.39
2022-12-26T15:46:24.448Z,10.54
2022-12-26T15:49:04.543Z,10.13
2022-12-26T15:51:37.035Z,11.73
2022-12-26T15:54:22.163Z,11.69
2022-12-26T15:56:52.114Z,10.68
2022-12-26T15:59:24.770Z,11.63
2022-12-26T16:01:54.007Z,11.42
2022-12-26T16:04:39.417Z,12.14
2022-12-26T16:07:20.634Z,12.53
2022-12-26T16:09:52.918Z,11.89
2022-12-26T16:12:24.753Z,12.15
2022-12-26T16:15:00.556Z,12.21
2022-12-26T16:17:28.006Z,11.71
2022-12-26T16:19:54.555Z,12.02
2022-12-26T16:23:05.591Z,11.71
2022-12-26T16:25:33.000Z,11.98
2022-12-26T16:28:01.751Z,12.27
2022-12-26T16:30:39.890Z,11.87
2022-12-26T16:33:06.877Z,11.20
2022-12-26T16:35:34.696Z,11.67
2022-12-26T16:38:02.860Z,11.72
2022-12-26T16:40:29.415Z,11.94
2022-12-26T16:42:58.019Z,11.29
2022-12-26T16:45:25.147Z,11.03
2022-12-26T16:47:52.743Z,11.84
2022-12-26T16:50:24.219Z,11.92
2022-12-26T16:53:02.830Z,11.92
2022-12-26T16:55:41.974Z,11.83
2022-12-26T16:58:13.798Z,11.98
2022-12-26T17:00:45.247Z,10.74
2022-12-26T17:03:24.912Z,11.42
2022-12-26T17:05:51.371Z,11.50
2022-12-26T17:08:17.770Z,10.82
2022-12-26T17:10:49.129Z,11.35
2022-12-26T17:13:22.306Z,10.86
2022-12-26T17:15:53.723Z,11.49
2022-12-26T17:18:39.175Z,11.34
2022-12-26T17:21:24.791Z,11.68
2022-12-26T17:24:03.441Z,11.39
2022-12-26T17:26:30.307Z,11.52
2022-12-26T17:28:57.058Z,11.61
2022-12-26T17:31:29.023Z,11.45
2022-12-26T17:33:59.201Z,11.27
2022-12-26T17:39:21.698Z,10.67
2022-12-26T17:41:52.857Z,10.33
2022-12-26T17:44:35.925Z,9.77
2022-12-26T17:47:07.311Z,10.30
2022-12-26T17:49:34.205Z,10.93
2022-12-26T17:52:02.115Z,10.18
2022-12-26T17:54:28.939Z,10.88
2022-12-26T17:56:55.583Z,11.21
2022-12-26T17:59:22.065Z,11.32
2022-12-26T18:01:48.876Z,10.85
2022-12-26T18:04:15.634Z,11.58
2022-12-26T18:06:42.351Z,11.27
2022-12-26T18:09:13.152Z,10.98
2022-12-26T18:11:39.641Z,11.15
2022-12-26T18:14:06.513Z,11.21
2022-12-26T18:16:33.844Z,11.38
2022-12-26T18:19:01.568Z,10.91
2022-12-26T18:21:28.153Z,10.96
2022-12-26T18:23:55.594Z,10.52
2022-12-26T18:26:29.102Z,11.09
2022-12-26T18:28:56.087Z,11.11
2022-12-26T18:31:22.975Z,10.93
2022-12-26T18:33:49.961Z,10.88
2022-12-26T18:36:17.660Z,10.98
2022-12-26T18:38:48.643Z,10.80
2022-12-26T18:41:17.150Z,10.63
2022-12-26T18:43:43.739Z,10.81
2022-12-26T18:46:20.664Z,10.28
2022-12-26T18:48:47.743Z,10.83
2022-12-26T18:51:14.421Z,10.30
2022-12-26T18:53:41.227Z,10.64
2022-12-26T18:56:11.095Z,10.21
2022-12-26T18:58:37.853Z,10.20
2022-12-26T19:01:04.779Z,9.96
2022-12-26T19:03:33.501Z,10.27
2022-12-26T19:05:59.944Z,10.17
2022-12-26T19:08:26.307Z,10.34
2022-12-26T19:10:52.602Z,9.90
2022-12-26T19:13:19.357Z,10.07
2022-12-26T19:15:47.130Z,10.11
2022-12-26T19:18:13.746Z,10.29
2022-12-26T19:20:44.091Z,9.89
2022-12-26T19:23:11.578Z,9.88
2022-12-26T19:25:38.231Z,9.73
2022-12-26T19:28:04.764Z,9.72
2022-12-26T19:30:38.551Z,10.49
2022-12-26T19:33:05.703Z,9.82
2022-12-26T19:35:32.253Z,10.51
2022-12-26T19:37:58.817Z,10.39
2022-12-26T19:40:25.997Z,10.20
2022-12-26T19:42:52.740Z,9.66
2022-12-26T19:45:19.411Z,10.22
2022-12-26T19:47:46.284Z,9.88
2022-12-26T19:50:13.146Z,10.74
2022-12-26T19:52:41.580Z,9.96
2022-12-26T19:55:09.222Z,10.63
2022-12-26T19:57:35.988Z,10.85
2022-12-26T20:00:03.611Z,10.04
2022-12-26T20:02:30.520Z,10.25
2022-12-26T20:04:57.432Z,10.01
2022-12-26T20:07:23.791Z,9.64
2022-12-26T20:09:52.722Z,10.06
2022-12-26T20:12:22.064Z,10.26
2022-12-26T20:14:51.445Z,10.00
2022-12-26T20:17:21.919Z,9.87
2022-12-26T20:19:50.190Z,10.25
2022-12-26T20:22:21.456Z,9.65
2022-12-26T20:24:54.009Z,9.44
2022-12-26T20:27:23.496Z,9.74
2022-12-26T20:29:50.433Z,9.79
2022-12-26T20:32:16.844Z,10.20
2022-12-26T20:34:43.241Z,9.50
2022-12-26T20:37:09.755Z,10.02
2022-12-26T20:39:36.671Z,9.83
2022-12-26T20:42:03.082Z,9.89
2022-12-26T20:44:29.502Z,9.04
2022-12-26T20:46:55.893Z,9.66
2022-12-26T20:49:22.706Z,9.79
2022-12-26T20:52:03.729Z,10.00
2022-12-26T20:54:30.101Z,9.35
2022-12-26T20:56:57.606Z,9.82
2022-12-26T20:59:25.289Z,9.43
2022-12-26T21:01:53.178Z,8.83
2022-12-26T21:04:20.729Z,9.54
2022-12-26T21:06:50.360Z,9.18
2022-12-26T21:09:16.843Z,9.93
2022-12-26T21:11:45.304Z,9.67
2022-12-26T21:14:16.507Z,9.81
2022-12-26T21:16:53.386Z,9.95
2022-12-26T21:19:20.989Z,9.87
2022-12-26T21:21:48.965Z,9.29
2022-12-26T21:24:27.153Z,10.19
2022-12-26T21:26:54.944Z,10.24
2022-12-26T21:29:26.220Z,9.68
2022-12-26T21:31:53.996Z,9.59
2022-12-26T21:34:21.944Z,9.46
2022-12-26T21:37:08.244Z,9.92
2022-12-26T21:39:36.169Z,9.41
2022-12-26T21:42:05.080Z,9.92
2022-12-26T21:44:31.466Z,9.91
2022-12-26T21:46:57.998Z,9.96
2022-12-26T21:49:24.480Z,9.19
2022-12-26T21:51:51.077Z,9.70
2022-12-26T21:54:36.148Z,9.37
2022-12-26T21:57:02.794Z,9.69
2022-12-26T21:59:48.120Z,9.69
2022-12-26T22:02:33.504Z,9.48
2022-12-26T22:05:00.947Z,9.88
2022-12-26T22:07:27.953Z,9.61
2022-12-26T22:09:54.360Z,9.88
2022-12-26T22:12:39.275Z,10.27
2022-12-26T22:15:06.331Z,9.42
2022-12-26T22:17:32.976Z,9.26
2022-12-26T22:19:59.310Z,9.89
2022-12-26T22:22:25.692Z,9.96
2022-12-26T22:24:52.125Z,8.94
2022-12-26T22:27:18.665Z,9.58
2022-12-26T22:29:45.110Z,9.93
2022-12-26T22:32:11.476Z,9.72
2022-12-26T22:34:37.879Z,9.49
2022-12-26T22:37:04.725Z,9.59
2022-12-26T22:39:31.395Z,9.50
2022-12-26T22:42:02.290Z,9.77
2022-12-26T22:44:28.988Z,9.67
2022-12-26T22:46:57.039Z,9.76
2022-12-26T22:49:23.471Z,9.45
2022-12-26T22:51:49.947Z,9.50
2022-12-26T22:54:16.278Z,8.84
2022-12-26T22:56:43.058Z,9.28
2022-12-26T22:59:10.631Z,8.75
2022-12-26T23:01:37.059Z,9.32
2022-12-26T23:04:03.620Z,9.90
2022-12-26T23:06:31.921Z,9.72
2022-12-26T23:08:59.404Z,9.39
2022-12-26T23:11:32.182Z,9.05
2022-12-26T23:14:03.472Z,8.99
2022-12-26T23:16:39.092Z,8.44
2022-12-26T23:19:43.119Z,8.83
2022-12-26T23:22:09.992Z,8.48
2022-12-26T23:24:36.895Z,8.93
2022-12-26T23:27:26.323Z,9.23
2022-12-26T23:30:12.594Z,8.09
2022-12-26T23:32:40.685Z,8.66
2022-12-26T23:35:08.066Z,8.66
2022-12-26T23:37:34.396Z,8.60
2022-12-26T23:40:01.293Z,9.28
2022-12-26T23:42:27.589Z,8.93
2022-12-26T23:44:53.956Z,8.88
2022-12-26T23:47:20.386Z,8.80
2022-12-26T23:49:46.855Z,9.24
2022-12-26T23:52:13.296Z,8.82
2022-12-26T23:54:39.763Z,8.75
2022-12-26T23:57:06.376Z,7.92
2022-12-26T23:59:32.765Z,8.86
